< < Back
Terminal Aerodrome Forecast


Current Version              Previous Versions:   1  2  3  4  5  6  7  8  9  

Terminal Aerodrome Forecast

136
FTUS44 KBMX 311700
TAFANB
TAF
KANB 311733Z 3118/0118 30008KT P6SM OVC050
     FM312000 31012G22KT P6SM OVC040
     FM010400 33014KT P6SM SCT040
     FM011400 31016G23KT P6SM SKC=

Latest METAR

250
SAUS70 KWBC 311800
MTRANB
METAR KANB 311753Z AUTO 00000KT 10SM SCT065 OVC095 13/07 A2996 RMK AO2
SLP149 60002 T01330072 10133 20033 58012


USA.gov is the U.S. government's official web portal to all federal, state and local government web resources and services.